Terminal Aerodrome Forecast
Issued by NWS Twin Cities, MN

Home | Current Version | Previous Version | Graphics & Text | Print | Product List | Glossary On
Versions: 1 2 3 4 5 6 7 8 9 10 11 12 13 14 15 16 17 18 19 20 21 22 23 24 25 26 27
000
FTUS43 KMPX 270848 AAA
TAFMSP
TAF AMD
KMSP 270848Z 2709/2812 36007KT P6SM SKC
     FM271200 VRB03KT P6SM SKC
     FM272200 17005KT P6SM BKN120
     FM280600 VRB03KT P6SM SKC=

USA.gov is the U.S. government's official web portal to all federal, state and local government web resources and services.